Time;durP1;ratioP1;P1;durP2;ratioP2;P2;SDS_P1;SDS_P2;PMS_P1;PMS_P2;Temp;Humidity;BMP_temperature;BMP_pressure;BME280_temperature;BME280_humidity;BME280_pressure;Samples;Min_cycle;Max_cycle;Signal;HPM_P1;HPM_P2
2023/07/17 00:01:18;;;;;;;4.68;1.05;;;17.30;99.90;;;;;;4998997;28;20499;-34
2023/07/17 00:03:44;;;;;;;4.53;1.10;;;17.30;99.90;;;;;;4993768;28;20049;-34
2023/07/17 00:06:09;;;;;;;3.97;1.10;;;17.20;99.90;;;;;;4993513;28;20454;-33
2023/07/17 00:08:35;;;;;;;3.65;1.00;;;17.20;99.90;;;;;;4992019;28;20041;-34
2023/07/17 00:11:01;;;;;;;4.40;1.00;;;17.10;99.90;;;;;;4996446;28;20061;-34
2023/07/17 00:13:28;;;;;;;5.88;1.48;;;17.00;99.90;;;;;;4993158;28;20077;-34
2023/07/17 00:15:53;;;;;;;3.40;0.88;;;16.80;99.90;;;;;;4990721;28;20057;-36
2023/07/17 00:18:19;;;;;;;7.15;0.90;;;16.60;99.90;;;;;;4991336;28;20061;-33
2023/07/17 00:20:45;;;;;;;4.00;0.93;;;16.50;99.90;;;;;;4990985;28;20096;-34
2023/07/17 00:23:10;;;;;;;5.35;1.10;;;16.40;99.90;;;;;;4993332;28;20049;-33
2023/07/17 00:25:36;;;;;;;4.68;1.00;;;16.30;99.90;;;;;;4992780;28;20042;-34
2023/07/17 00:28:02;;;;;;;4.18;1.10;;;16.20;99.90;;;;;;4991520;28;20050;-34
2023/07/17 00:30:28;;;;;;;4.68;0.98;;;16.20;99.90;;;;;;4992607;28;20059;-33
2023/07/17 00:32:53;;;;;;;4.13;1.05;;;16.10;99.90;;;;;;4997806;28;20054;-34
2023/07/17 00:35:19;;;;;;;5.10;1.20;;;16.10;99.90;;;;;;4995082;28;20104;-34
2023/07/17 00:37:46;;;;;;;4.90;0.95;;;16.00;99.90;;;;;;4990938;28;20045;-34
2023/07/17 00:40:12;;;;;;;5.03;0.80;;;16.00;99.90;;;;;;4990289;28;20058;-34
2023/07/17 00:42:38;;;;;;;1.77;0.60;;;16.00;99.90;;;;;;4989213;28;20050;-33
2023/07/17 00:45:05;;;;;;;5.07;1.00;;;16.00;99.90;;;;;;4993759;28;20057;-34
2023/07/17 00:47:32;;;;;;;6.65;1.02;;;16.00;99.90;;;;;;4993252;28;20085;-34
2023/07/17 00:49:58;;;;;;;5.32;0.80;;;15.90;99.90;;;;;;4994869;28;20539;-34
2023/07/17 00:52:25;;;;;;;2.45;0.70;;;15.90;99.90;;;;;;4998647;28;20117;-34
2023/07/17 00:54:51;;;;;;;4.88;0.73;;;15.90;99.90;;;;;;5005066;28;20454;-34
2023/07/17 00:57:18;;;;;;;3.90;0.65;;;15.90;99.90;;;;;;4989230;28;20050;-33
2023/07/17 00:59:44;;;;;;;5.05;0.88;;;15.90;99.90;;;;;;5005645;28;20099;-34
2023/07/17 01:02:12;;;;;;;2.92;0.88;;;15.90;99.90;;;;;;4992691;28;20057;-33
2023/07/17 01:04:42;;;;;;;3.35;0.70;;;15.90;99.90;;;;;;4999794;28;20172;-34
2023/07/17 01:07:08;;;;;;;4.20;0.70;;;15.90;99.90;;;;;;4996939;28;20542;-34
2023/07/17 01:09:35;;;;;;;2.22;0.80;;;15.90;99.90;;;;;;4997516;28;20058;-34
2023/07/17 01:12:01;;;;;;;2.92;0.80;;;15.90;99.90;;;;;;5002816;28;20674;-35
2023/07/17 01:14:28;;;;;;;1.52;0.65;;;15.80;99.90;;;;;;4992173;28;20137;-34
2023/07/17 01:16:54;;;;;;;3.30;0.90;;;15.80;99.90;;;;;;4984900;28;20066;-34
2023/07/17 01:19:20;;;;;;;3.83;0.60;;;15.80;99.90;;;;;;4996147;28;20158;-34
2023/07/17 01:21:51;;;;;;;2.65;0.70;;;15.80;99.90;;;;;;5007399;28;20046;-34
2023/07/17 01:24:18;;;;;;;4.85;0.90;;;15.80;99.90;;;;;;4992224;28;20050;-34
2023/07/17 01:26:44;;;;;;;3.70;0.98;;;15.80;99.90;;;;;;4997759;28;20054;-34
2023/07/17 01:29:10;;;;;;;2.72;0.95;;;15.80;99.90;;;;;;4997147;28;20118;-34
2023/07/17 01:31:38;;;;;;;2.97;0.80;;;15.70;99.90;;;;;;4999457;28;20053;-34
2023/07/17 01:34:04;;;;;;;2.92;0.98;;;15.70;99.90;;;;;;4989077;28;20503;-33
2023/07/17 01:36:30;;;;;;;2.38;0.70;;;15.70;99.90;;;;;;4996604;28;20050;-33
2023/07/17 01:38:55;;;;;;;3.47;0.93;;;15.70;99.90;;;;;;4998002;28;20086;-34
2023/07/17 01:41:24;;;;;;;6.03;1.15;;;15.70;99.90;;;;;;4992512;28;20144;-34
2023/07/17 01:43:50;;;;;;;5.47;0.80;;;15.60;99.90;;;;;;4996096;28;20570;-34
2023/07/17 01:46:16;;;;;;;2.70;0.90;;;15.60;99.90;;;;;;4996098;28;20065;-34
2023/07/17 01:48:41;;;;;;;3.90;0.73;;;15.60;99.90;;;;;;4995625;28;20484;-33
2023/07/17 01:51:07;;;;;;;2.05;0.60;;;15.60;99.90;;;;;;4996017;28;20052;-33
2023/07/17 01:53:33;;;;;;;3.67;1.08;;;15.50;99.90;;;;;;4991772;28;20057;-34
2023/07/17 01:56:02;;;;;;;3.38;1.10;;;15.50;99.90;;;;;;4999613;28;20050;-33
2023/07/17 01:58:28;;;;;;;4.20;0.68;;;15.50;99.90;;;;;;4995992;28;20046;-34
2023/07/17 02:00:55;;;;;;;2.75;0.70;;;15.50;99.90;;;;;;5005616;28;20054;-39
2023/07/17 02:03:22;;;;;;;5.45;1.00;;;15.50;99.90;;;;;;4991888;28;20578;-34
2023/07/17 02:05:49;;;;;;;4.15;0.75;;;15.40;99.90;;;;;;4995797;28;20042;-34
2023/07/17 02:08:16;;;;;;;4.35;0.90;;;15.40;99.90;;;;;;4996343;28;20058;-34
2023/07/17 02:10:47;;;;;;;3.50;0.95;;;15.40;99.90;;;;;;4995332;28;20065;-34
2023/07/17 02:13:13;;;;;;;3.77;0.90;;;15.40;99.90;;;;;;4982477;28;20054;-34
2023/07/17 02:15:39;;;;;;;5.45;1.10;;;15.30;99.90;;;;;;5000512;28;20045;-34
2023/07/17 02:18:04;;;;;;;3.60;1.48;;;15.30;99.90;;;;;;4995062;28;20062;-34
2023/07/17 02:20:30;;;;;;;6.80;0.90;;;15.30;99.90;;;;;;4997411;28;20041;-34
2023/07/17 02:22:55;;;;;;;5.53;1.33;;;15.30;99.90;;;;;;4998012;28;20080;-34
2023/07/17 02:25:21;;;;;;;4.72;1.17;;;15.20;99.90;;;;;;4994833;28;20535;-34
2023/07/17 02:27:47;;;;;;;6.20;1.20;;;15.30;99.90;;;;;;4984795;28;20133;-34
2023/07/17 02:30:12;;;;;;;6.63;1.02;;;15.30;99.90;;;;;;5002682;28;20053;-34
2023/07/17 02:32:38;;;;;;;7.90;1.30;;;15.30;99.90;;;;;;4994985;28;20492;-34
2023/07/17 02:35:05;;;;;;;6.93;1.13;;;15.30;99.90;;;;;;5000566;28;20046;-34
2023/07/17 02:37:31;;;;;;;5.80;1.20;;;15.30;99.90;;;;;;4998163;28;20099;-34
2023/07/17 02:39:56;;;;;;;4.07;0.90;;;15.30;99.90;;;;;;4996474;28;20057;-34
2023/07/17 02:42:22;;;;;;;13.05;1.83;;;15.30;99.90;;;;;;4992641;28;20046;-34
2023/07/17 02:44:48;;;;;;;3.65;1.05;;;15.30;99.90;;;;;;4991427;28;20058;-34
2023/07/17 02:47:15;;;;;;;6.28;1.20;;;15.30;99.90;;;;;;4996271;28;20057;-34
2023/07/17 02:49:41;;;;;;;4.47;1.00;;;15.20;99.90;;;;;;4995943;28;20056;-34
2023/07/17 02:52:07;;;;;;;3.50;1.15;;;15.20;99.90;;;;;;4994922;28;20054;-34
2023/07/17 02:54:36;;;;;;;2.75;0.95;;;15.30;99.90;;;;;;4995228;28;20488;-34
2023/07/17 02:57:05;;;;;;;7.05;1.00;;;15.20;99.90;;;;;;4993715;28;20054;-34
2023/07/17 02:59:31;;;;;;;4.03;0.90;;;15.20;99.90;;;;;;4997760;28;20078;-34
2023/07/17 03:01:58;;;;;;;5.38;1.55;;;15.20;99.90;;;;;;5004849;28;20400;-34
2023/07/17 03:04:24;;;;;;;6.22;1.25;;;15.10;99.90;;;;;;4994138;28;20053;-34
2023/07/17 03:06:50;;;;;;;7.13;1.33;;;15.10;99.90;;;;;;4990200;28;20061;-34
2023/07/17 03:09:16;;;;;;;4.03;1.10;;;15.20;99.90;;;;;;4985915;28;20424;-33
2023/07/17 03:11:42;;;;;;;6.70;1.50;;;15.10;99.90;;;;;;5002786;28;20056;-34
2023/07/17 03:14:07;;;;;;;4.20;1.02;;;15.10;99.90;;;;;;4991568;28;20041;-34
2023/07/17 03:16:33;;;;;;;4.93;1.02;;;15.00;99.90;;;;;;4994926;28;20470;-34
2023/07/17 03:18:59;;;;;;;4.13;1.63;;;15.00;99.90;;;;;;4997345;28;20053;-34
2023/07/17 03:21:24;;;;;;;6.57;1.67;;;15.00;99.90;;;;;;4992132;28;20415;-34
2023/07/17 03:23:50;;;;;;;6.40;1.58;;;14.90;99.90;;;;;;4996956;28;20077;-34
2023/07/17 03:26:16;;;;;;;4.78;1.65;;;15.00;99.90;;;;;;4997338;28;20095;-34
2023/07/17 03:28:41;;;;;;;5.30;1.42;;;14.90;99.90;;;;;;5000649;28;20077;-34
2023/07/17 03:31:07;;;;;;;6.03;1.20;;;14.90;99.90;;;;;;5000832;28;20089;-34
2023/07/17 03:33:33;;;;;;;4.22;1.10;;;14.90;99.90;;;;;;4987868;28;20046;-34
2023/07/17 03:35:59;;;;;;;7.15;1.65;;;14.90;99.90;;;;;;4983221;28;20050;-32
2023/07/17 03:38:25;;;;;;;8.10;1.40;;;14.90;99.90;;;;;;4993797;28;20081;-34
2023/07/17 03:40:51;;;;;;;8.65;1.20;;;14.90;99.90;;;;;;4996909;28;20092;-33
2023/07/17 03:43:16;;;;;;;4.70;1.10;;;14.90;99.90;;;;;;4989084;28;20054;-33
2023/07/17 03:45:42;;;;;;;4.90;1.10;;;14.90;99.90;;;;;;4998519;28;20046;-33
2023/07/17 03:48:08;;;;;;;7.60;1.33;;;14.90;99.90;;;;;;4994002;28;20050;-33
2023/07/17 03:50:35;;;;;;;7.15;1.77;;;14.90;99.90;;;;;;4988171;28;20042;-33
2023/07/17 03:53:01;;;;;;;8.18;1.40;;;14.90;99.90;;;;;;4999087;28;20069;-33
2023/07/17 03:55:27;;;;;;;3.80;0.90;;;14.90;99.90;;;;;;4992770;28;20069;-34
2023/07/17 03:57:52;;;;;;;6.32;1.05;;;14.90;99.90;;;;;;4993943;28;20073;-33
2023/07/17 04:00:18;;;;;;;5.10;1.02;;;14.90;99.90;;;;;;4988371;28;20062;-33
2023/07/17 04:02:44;;;;;;;4.15;1.10;;;14.90;99.90;;;;;;4991084;28;20070;-33
2023/07/17 04:05:10;;;;;;;6.10;0.90;;;14.90;99.90;;;;;;4980422;28;20104;-33
2023/07/17 04:07:37;;;;;;;3.22;1.00;;;14.90;99.90;;;;;;5001523;28;20409;-34
2023/07/17 04:10:03;;;;;;;4.28;1.08;;;14.90;99.90;;;;;;4993462;28;20100;-34
2023/07/17 04:12:29;;;;;;;6.82;0.80;;;14.90;99.90;;;;;;5004040;28;20042;-33
2023/07/17 04:14:55;;;;;;;6.18;1.40;;;14.90;99.90;;;;;;4996093;28;20554;-42
2023/07/17 04:17:20;;;;;;;6.40;1.08;;;14.90;99.90;;;;;;4994083;28;20054;-34
2023/07/17 04:19:46;;;;;;;4.03;1.08;;;14.90;99.90;;;;;;4996914;28;20140;-33
2023/07/17 04:22:12;;;;;;;5.47;1.30;;;14.90;99.90;;;;;;4992658;28;20049;-34
2023/07/17 04:24:37;;;;;;;5.97;1.33;;;14.90;99.90;;;;;;4995754;28;20041;-34
2023/07/17 04:27:03;;;;;;;9.18;1.35;;;14.90;99.90;;;;;;4998947;28;20058;-34
2023/07/17 04:29:29;;;;;;;4.00;1.20;;;14.90;99.90;;;;;;5008487;28;20061;-34
2023/07/17 04:31:55;;;;;;;5.53;1.27;;;14.90;99.90;;;;;;5003606;28;20133;-33
2023/07/17 04:34:20;;;;;;;4.90;1.05;;;14.90;99.90;;;;;;4991934;28;20144;-33
2023/07/17 04:36:46;;;;;;;4.85;1.25;;;14.90;99.90;;;;;;4997816;28;20408;-33
2023/07/17 04:39:12;;;;;;;7.00;1.40;;;15.00;99.90;;;;;;5000283;28;20057;-33
2023/07/17 04:41:39;;;;;;;5.13;1.20;;;15.00;99.90;;;;;;4999638;28;20054;-34
2023/07/17 04:44:04;;;;;;;4.72;1.10;;;15.00;99.90;;;;;;4993040;28;20057;-34
2023/07/17 04:46:30;;;;;;;6.20;2.65;;;15.00;99.90;;;;;;5000414;28;20416;-34
2023/07/17 04:48:56;;;;;;;5.38;1.25;;;15.10;99.90;;;;;;5000981;28;20085;-34
2023/07/17 04:51:21;;;;;;;6.20;1.00;;;15.10;99.90;;;;;;4996742;28;20062;-34
2023/07/17 04:53:47;;;;;;;4.88;1.77;;;15.20;99.90;;;;;;4996485;28;20050;-34
2023/07/17 04:56:13;;;;;;;3.85;1.13;;;15.20;99.90;;;;;;5007125;28;20092;-34
2023/07/17 04:58:38;;;;;;;4.22;1.48;;;15.20;99.90;;;;;;4997570;28;20137;-34
2023/07/17 05:01:05;;;;;;;5.20;1.17;;;15.30;99.90;;;;;;5001619;28;20152;-34
2023/07/17 05:03:31;;;;;;;4.45;1.23;;;15.30;99.90;;;;;;4995666;28;20625;-34
2023/07/17 05:05:57;;;;;;;7.93;1.55;;;15.30;99.90;;;;;;5006391;28;20115;-34
2023/07/17 05:08:25;;;;;;;3.22;1.10;;;15.40;99.90;;;;;;5001760;28;20053;-34
2023/07/17 05:10:54;;;;;;;6.93;1.30;;;15.40;99.90;;;;;;5001424;28;20538;-34
2023/07/17 05:13:20;;;;;;;4.57;1.25;;;15.40;99.90;;;;;;4996897;28;20046;-34
2023/07/17 05:15:46;;;;;;;5.60;1.40;;;15.50;99.90;;;;;;5000783;28;20497;-34
2023/07/17 05:18:11;;;;;;;9.48;1.15;;;15.50;99.90;;;;;;4998984;28;20125;-34
2023/07/17 05:20:37;;;;;;;6.00;1.58;;;15.60;99.90;;;;;;5002099;28;20050;-34
2023/07/17 05:23:03;;;;;;;6.40;1.10;;;15.60;99.90;;;;;;5003551;28;20399;-35
2023/07/17 05:25:28;;;;;;;5.82;1.60;;;15.60;99.90;;;;;;5004235;28;20484;-34
2023/07/17 05:27:54;;;;;;;4.70;1.30;;;15.70;99.90;;;;;;4996942;28;20058;-34
2023/07/17 05:30:20;;;;;;;5.65;2.45;;;15.70;99.90;;;;;;5003492;28;20045;-36
2023/07/17 05:32:45;;;;;;;5.47;1.20;;;15.70;99.90;;;;;;4991776;28;20081;-34
2023/07/17 05:35:11;;;;;;;6.90;1.38;;;15.80;99.90;;;;;;4977717;28;20656;-34
2023/07/17 05:37:37;;;;;;;7.47;1.65;;;15.80;99.90;;;;;;4996057;28;20500;-34
2023/07/17 05:40:03;;;;;;;4.85;1.40;;;15.90;99.90;;;;;;4990719;28;20459;-34
2023/07/17 05:42:29;;;;;;;8.48;1.40;;;16.00;99.90;;;;;;4990893;28;20058;-34
2023/07/17 05:44:55;;;;;;;4.55;1.52;;;16.00;99.90;;;;;;4996507;28;20050;-34
2023/07/17 05:47:20;;;;;;;4.63;1.60;;;16.00;99.90;;;;;;5004747;28;20452;-34
2023/07/17 05:49:46;;;;;;;6.80;2.15;;;16.10;99.90;;;;;;4990030;28;20411;-34
2023/07/17 05:52:12;;;;;;;9.85;1.90;;;16.10;99.90;;;;;;4992634;28;20140;-34
2023/07/17 05:54:37;;;;;;;5.00;1.83;;;16.20;99.90;;;;;;4982089;28;20222;-34
2023/07/17 05:57:03;;;;;;;7.28;1.83;;;16.30;99.90;;;;;;4985027;28;20052;-34
2023/07/17 05:59:29;;;;;;;7.10;2.00;;;16.40;99.90;;;;;;4997843;28;20085;-34
2023/07/17 06:01:54;;;;;;;4.93;1.48;;;16.40;99.90;;;;;;4997602;28;20545;-34
2023/07/17 06:04:20;;;;;;;7.00;2.20;;;16.40;99.90;;;;;;4985573;28;20111;-34
2023/07/17 06:06:46;;;;;;;4.72;1.90;;;16.50;99.90;;;;;;4987353;28;20140;-35
2023/07/17 06:09:11;;;;;;;5.25;1.65;;;16.40;99.90;;;;;;4987389;28;20142;-34
2023/07/17 06:11:37;;;;;;;5.57;1.60;;;16.40;99.90;;;;;;4988933;28;20197;-34
2023/07/17 06:14:03;;;;;;;6.70;1.75;;;16.40;99.90;;;;;;4999187;28;20049;-34
2023/07/17 06:16:28;;;;;;;10.45;2.20;;;16.50;99.90;;;;;;4986932;28;20415;-35
2023/07/17 06:18:54;;;;;;;10.45;2.22;;;16.70;99.90;;;;;;4979170;28;20042;-34
2023/07/17 06:21:20;;;;;;;7.00;2.22;;;16.80;99.90;;;;;;4998780;28;20049;-33
2023/07/17 06:23:45;;;;;;;7.40;2.42;;;16.70;99.90;;;;;;4996796;28;20058;-34
2023/07/17 06:26:11;;;;;;;5.45;2.10;;;16.60;99.90;;;;;;4992549;28;20058;-34
2023/07/17 06:28:37;;;;;;;4.93;1.98;;;16.70;99.90;;;;;;5002976;28;20539;-34
2023/07/17 06:31:02;;;;;;;6.90;2.20;;;16.70;99.90;;;;;;4992380;28;20050;-34
2023/07/17 06:33:28;;;;;;;9.38;2.50;;;16.80;99.90;;;;;;4987043;28;20141;-33
2023/07/17 06:35:53;;;;;;;8.98;2.60;;;16.80;99.90;;;;;;4986402;28;20081;-34
2023/07/17 06:38:19;;;;;;;10.85;2.40;;;16.80;99.90;;;;;;4992897;28;20054;-33
2023/07/17 06:40:45;;;;;;;9.13;2.55;;;16.80;99.90;;;;;;4996063;28;20058;-32
2023/07/17 06:43:10;;;;;;;7.43;2.50;;;16.80;99.90;;;;;;4984899;28;20042;-33
2023/07/17 06:45:36;;;;;;;7.05;2.40;;;16.80;99.90;;;;;;4990465;28;20092;-34
2023/07/17 06:48:02;;;;;;;9.98;2.42;;;16.90;99.90;;;;;;4993064;28;20054;-34
2023/07/17 06:50:29;;;;;;;5.47;1.90;;;17.00;99.90;;;;;;4999699;28;20052;-34
2023/07/17 06:52:55;;;;;;;5.78;2.20;;;17.10;99.90;;;;;;4993044;28;20052;-34
2023/07/17 06:55:20;;;;;;;7.63;2.17;;;17.20;99.90;;;;;;4993871;28;20526;-34
2023/07/17 06:57:46;;;;;;;7.38;2.53;;;17.20;99.90;;;;;;5002818;28;20069;-34
2023/07/17 07:00:12;;;;;;;7.65;2.20;;;17.30;99.90;;;;;;4995026;28;20065;-35
2023/07/17 07:02:38;;;;;;;5.85;2.20;;;17.30;99.90;;;;;;4995920;28;20050;-34
2023/07/17 07:05:04;;;;;;;8.40;2.25;;;17.40;99.90;;;;;;4995017;28;20050;-34
2023/07/17 07:07:30;;;;;;;7.78;2.47;;;17.40;99.90;;;;;;4989126;28;21534;-34
2023/07/17 07:09:55;;;;;;;3.45;1.90;;;17.50;99.90;;;;;;4985322;28;20354;-35
2023/07/17 07:12:21;;;;;;;8.43;2.33;;;17.60;99.90;;;;;;4986151;28;20046;-34
2023/07/17 07:14:46;;;;;;;6.93;2.28;;;17.60;99.90;;;;;;4999513;28;20066;-35
2023/07/17 07:17:12;;;;;;;13.27;2.95;;;17.80;99.90;;;;;;4986311;28;20057;-35
2023/07/17 07:19:38;;;;;;;7.97;2.42;;;17.80;99.90;;;;;;4988945;28;20069;-34
2023/07/17 07:22:04;;;;;;;7.40;2.42;;;17.90;99.90;;;;;;4993806;28;20061;-34
2023/07/17 07:24:30;;;;;;;6.38;2.22;;;17.90;99.90;;;;;;4991471;28;20054;-35
2023/07/17 07:26:55;;;;;;;6.30;2.35;;;18.00;99.90;;;;;;4981493;28;20046;-34
2023/07/17 07:29:21;;;;;;;8.73;2.25;;;17.90;99.90;;;;;;4978320;28;20068;-34
2023/07/17 07:31:46;;;;;;;8.63;2.70;;;17.90;99.90;;;;;;4994724;28;20177;-34
2023/07/17 07:34:12;;;;;;;8.95;2.55;;;17.90;99.90;;;;;;4997607;28;20050;-33
2023/07/17 07:36:38;;;;;;;10.40;2.30;;;18.00;99.90;;;;;;4990123;28;20137;-33
2023/07/17 07:39:05;;;;;;;8.23;2.28;;;18.10;99.90;;;;;;4987625;28;20064;-33
2023/07/17 07:41:32;;;;;;;8.52;2.70;;;18.00;99.90;;;;;;4994686;28;20488;-34
2023/07/17 07:43:58;;;;;;;10.30;1.83;;;18.00;99.90;;;;;;4988148;28;20401;-34
2023/07/17 07:46:24;;;;;;;6.47;2.00;;;18.10;99.90;;;;;;4990852;28;20052;-34
2023/07/17 07:48:50;;;;;;;9.35;2.15;;;18.20;99.90;;;;;;4999917;28;20049;-34
2023/07/17 07:51:15;;;;;;;6.00;2.30;;;18.30;99.90;;;;;;4998954;28;20411;-34
2023/07/17 07:53:41;;;;;;;7.55;2.67;;;18.30;99.90;;;;;;5005319;28;20046;-34
2023/07/17 07:56:06;;;;;;;10.65;3.15;;;18.30;99.90;;;;;;4991513;28;20130;-34
2023/07/17 07:58:32;;;;;;;8.02;2.17;;;18.20;99.90;;;;;;4993496;28;20136;-34
2023/07/17 08:00:58;;;;;;;6.20;1.85;;;18.20;99.90;;;;;;4991998;28;20054;-34
2023/07/17 08:03:23;;;;;;;5.70;2.28;;;18.20;99.90;;;;;;4986323;28;20479;-44
2023/07/17 08:05:49;;;;;;;9.63;2.72;;;18.20;99.90;;;;;;4993298;28;20078;-35
2023/07/17 08:08:15;;;;;;;7.10;2.30;;;18.30;99.90;;;;;;4995339;28;20046;-35
2023/07/17 08:10:40;;;;;;;7.28;2.47;;;18.30;99.90;;;;;;4987163;28;20038;-35
2023/07/17 08:13:06;;;;;;;10.45;2.65;;;18.40;99.90;;;;;;5003206;28;20042;-34
2023/07/17 08:15:32;;;;;;;8.05;2.00;;;18.50;99.90;;;;;;4993670;28;20046;-34
2023/07/17 08:17:57;;;;;;;8.23;2.25;;;18.60;99.90;;;;;;4996563;28;20054;-34
2023/07/17 08:20:23;;;;;;;7.57;2.42;;;18.50;99.90;;;;;;4989956;28;20075;-35
2023/07/17 08:22:54;;;;;;;10.48;2.15;;;18.60;99.90;;;;;;4996950;28;20084;-35
2023/07/17 08:25:23;;;;;;;4.78;2.00;;;18.60;99.90;;;;;;4984533;28;20498;-34
2023/07/17 08:27:49;;;;;;;5.18;1.85;;;18.60;99.90;;;;;;4984531;28;20047;-40
2023/07/17 08:30:15;;;;;;;4.10;1.83;;;18.60;99.90;;;;;;4990065;28;20060;-34
2023/07/17 08:32:41;;;;;;;5.25;1.63;;;18.70;99.90;;;;;;4988153;28;20096;-34
2023/07/17 08:35:07;;;;;;;12.93;2.72;;;18.70;99.90;;;;;;4995162;28;20069;-34
2023/07/17 08:37:33;;;;;;;6.43;1.73;;;18.90;99.90;;;;;;4990012;28;20094;-34
2023/07/17 08:39:59;;;;;;;5.93;2.17;;;18.90;99.90;;;;;;4988052;28;20157;-34
2023/07/17 08:42:25;;;;;;;6.88;1.88;;;18.70;99.90;;;;;;4992103;28;20053;-34
2023/07/17 08:44:52;;;;;;;6.97;2.33;;;18.60;99.90;;;;;;4994018;28;20077;-34
2023/07/17 08:47:19;;;;;;;6.72;1.98;;;18.40;99.90;;;;;;4994757;28;20133;-34
2023/07/17 08:49:47;;;;;;;5.13;1.80;;;18.30;99.90;;;;;;4991262;28;20146;-34
2023/07/17 08:52:14;;;;;;;7.70;2.25;;;18.40;99.90;;;;;;4994656;28;20141;-34
2023/07/17 08:54:40;;;;;;;7.35;2.15;;;18.70;99.90;;;;;;4985943;28;20477;-34
2023/07/17 08:57:06;;;;;;;5.53;1.80;;;18.90;99.90;;;;;;4992150;28;20058;-34
2023/07/17 08:59:34;;;;;;;11.63;1.73;;;19.00;99.90;;;;;;4989461;28;20078;-34
2023/07/17 09:02:02;;;;;;;5.78;1.80;;;19.00;99.90;;;;;;4986719;28;20053;-34
2023/07/17 09:04:31;;;;;;;6.68;1.83;;;19.10;99.90;;;;;;4987626;28;20583;-34
2023/07/17 09:06:57;;;;;;;5.57;1.33;;;19.30;99.90;;;;;;4999251;28;20054;-33
2023/07/17 09:09:22;;;;;;;5.45;1.25;;;19.30;99.90;;;;;;4990348;28;20101;-33
2023/07/17 09:12:09;;;;;;;4.03;1.10;;;19.30;99.90;;;;;;4996533;28;20041;-34
2023/07/17 09:14:35;;;;;;;3.08;1.10;;;19.30;99.90;;;;;;4984530;28;20061;-33
2023/07/17 09:17:04;;;;;;;6.93;1.45;;;19.20;99.90;;;;;;4984857;28;20134;-34
2023/07/17 09:19:31;;;;;;;5.45;1.48;;;19.30;99.90;;;;;;4998293;28;20069;-34
2023/07/17 09:22:02;;;;;;;5.40;1.40;;;19.40;99.90;;;;;;4993795;28;23065;-33
2023/07/17 09:24:28;;;;;;;7.25;1.67;;;19.70;99.90;;;;;;4999321;28;20053;-34
2023/07/17 09:26:57;;;;;;;4.07;1.23;;;19.90;99.90;;;;;;4999649;28;20053;-34
2023/07/17 09:29:24;;;;;;;6.43;1.50;;;19.90;99.90;;;;;;4997281;28;20617;-33
2023/07/17 09:31:50;;;;;;;6.85;1.75;;;20.00;99.90;;;;;;4987095;28;20054;-34
2023/07/17 09:34:16;;;;;;;4.32;1.05;;;20.10;99.90;;;;;;4994596;28;20045;-33
2023/07/17 09:36:42;;;;;;;4.57;1.30;;;20.10;99.90;;;;;;5003068;28;20507;-33
2023/07/17 09:39:10;;;;;;;6.15;1.63;;;20.20;99.90;;;;;;4983660;28;20070;-33
2023/07/17 09:41:35;;;;;;;6.70;1.48;;;20.20;99.90;;;;;;4995988;28;20101;-33
2023/07/17 09:44:07;;;;;;;2.97;1.10;;;20.20;99.90;;;;;;5000080;28;20484;-32
2023/07/17 09:46:39;;;;;;;7.28;2.50;;;20.20;99.90;;;;;;4992383;28;20062;-32
2023/07/17 09:49:09;;;;;;;7.32;1.52;;;20.10;99.90;;;;;;4986348;28;20089;-32
2023/07/17 09:51:35;;;;;;;6.50;1.60;;;20.10;99.90;;;;;;4998013;28;20050;-32
2023/07/17 09:54:03;;;;;;;4.15;1.52;;;20.10;99.90;;;;;;4993199;28;20089;-33
2023/07/17 09:56:30;;;;;;;3.28;0.95;;;20.20;99.90;;;;;;5003957;28;20050;-32
2023/07/17 09:59:17;;;;;;;5.32;1.88;;;20.30;99.90;;;;;;4997978;28;20054;-32
2023/07/17 10:01:47;;;;;;;4.70;1.90;;;20.40;99.90;;;;;;4998876;28;20412;-32
2023/07/17 10:04:29;;;;;;;4.80;1.00;;;20.50;99.90;;;;;;4996706;28;20034;-32
2023/07/17 10:06:57;;;;;;;9.40;1.30;;;20.50;99.90;;;;;;4995435;28;20064;-33
2023/07/17 10:09:27;;;;;;;4.32;1.00;;;20.60;99.90;;;;;;4988680;28;20050;-34
2023/07/17 10:11:54;;;;;;;5.22;1.40;;;20.70;99.90;;;;;;4990392;28;20038;-32
2023/07/17 10:14:21;;;;;;;6.85;1.30;;;20.70;99.90;;;;;;4995362;28;20049;-32
2023/07/17 10:16:46;;;;;;;5.03;1.23;;;20.80;99.90;;;;;;4994992;28;20045;-33
2023/07/17 10:19:13;;;;;;;5.28;1.15;;;20.90;99.90;;;;;;4994467;28;20412;-33
2023/07/17 10:21:54;;;;;;;5.05;1.20;;;21.10;99.90;;;;;;4987976;28;20050;-33
2023/07/17 10:24:25;;;;;;;3.05;1.00;;;21.30;99.90;;;;;;4991408;28;20714;-32
2023/07/17 10:26:51;;;;;;;4.97;1.10;;;21.30;99.90;;;;;;4988394;28;20100;-33
2023/07/17 10:29:31;;;;;;;6.35;1.10;;;21.20;99.90;;;;;;4984216;28;20066;-33
2023/07/17 10:31:57;;;;;;;4.57;1.38;;;21.20;99.90;;;;;;4991750;28;20042;-34
2023/07/17 10:34:47;;;;;;;4.40;1.25;;;21.20;99.90;;;;;;4993713;28;20053;-33
2023/07/17 10:37:31;;;;;;;5.28;1.13;;;21.40;99.90;;;;;;4988649;28;20113;-33
2023/07/17 10:40:07;;;;;;;4.88;1.00;;;21.50;99.90;;;;;;4995762;28;20100;-33
2023/07/17 10:42:34;;;;;;;3.28;1.10;;;21.70;99.90;;;;;;4983489;28;20054;-33
2023/07/17 10:45:18;;;;;;;3.50;1.00;;;21.80;99.90;;;;;;4994288;28;20582;-34
2023/07/17 10:47:49;;;;;;;6.07;1.05;;;21.90;99.90;;;;;;4999457;28;20422;-34
2023/07/17 10:50:17;;;;;;;3.50;0.98;;;21.80;99.90;;;;;;4997144;28;20137;-34
2023/07/17 10:52:43;;;;;;;3.13;0.90;;;21.70;99.90;;;;;;4997555;28;20509;-34
2023/07/17 10:55:09;;;;;;;3.30;1.00;;;21.70;99.90;;;;;;5001959;28;20198;-34
2023/07/17 10:57:37;;;;;;;4.28;0.98;;;21.80;99.90;;;;;;5023890;28;20054;-34
2023/07/17 11:00:03;;;;;;;3.22;1.23;;;21.80;99.90;;;;;;5002676;28;20058;-34
2023/07/17 11:02:29;;;;;;;2.60;0.80;;;21.90;99.90;;;;;;4987708;28;20054;-34
2023/07/17 11:05:01;;;;;;;5.15;0.80;;;21.90;99.90;;;;;;4985782;28;20130;-33
2023/07/17 11:07:30;;;;;;;5.15;1.30;;;22.00;99.90;;;;;;4989759;28;20057;-35
2023/07/17 11:09:56;;;;;;;4.20;0.82;;;22.10;99.90;;;;;;5013031;28;20104;-34
2023/07/17 11:12:25;;;;;;;2.65;0.90;;;22.20;99.90;;;;;;4994461;28;20053;-33
2023/07/17 11:14:54;;;;;;;5.75;0.85;;;22.40;99.90;;;;;;4993033;28;20160;-34
2023/07/17 11:17:20;;;;;;;3.70;0.63;;;22.40;99.90;;;;;;4997691;28;20054;-33
2023/07/17 11:19:46;;;;;;;3.22;0.70;;;22.40;99.90;;;;;;4992592;28;20522;-34
2023/07/17 11:22:13;;;;;;;2.17;0.68;;;22.20;99.90;;;;;;4990621;28;20053;-34
2023/07/17 11:24:39;;;;;;;4.70;0.98;;;22.10;99.90;;;;;;4991959;28;20049;-34
2023/07/17 11:27:06;;;;;;;2.08;0.70;;;22.10;99.90;;;;;;4991212;28;20054;-33
2023/07/17 11:29:40;;;;;;;2.47;0.63;;;22.20;99.90;;;;;;4979559;28;20551;-34
2023/07/17 11:32:06;;;;;;;3.70;0.82;;;22.40;99.90;;;;;;4985577;28;20763;-34
2023/07/17 11:34:35;;;;;;;4.13;0.90;;;22.60;99.90;;;;;;4991309;28;20164;-33
2023/07/17 11:37:03;;;;;;;3.47;0.98;;;22.70;99.90;;;;;;4999565;28;20050;-33
2023/07/17 11:39:31;;;;;;;2.83;0.60;;;22.60;99.90;;;;;;4995095;28;20586;-33
2023/07/17 11:41:58;;;;;;;3.03;0.70;;;22.60;99.90;;;;;;4989331;28;20062;-33
2023/07/17 11:44:29;;;;;;;3.45;0.60;;;22.70;99.90;;;;;;4986129;28;20055;-33
2023/07/17 11:47:03;;;;;;;3.60;0.70;;;22.50;99.90;;;;;;4995348;28;20122;-33
2023/07/17 11:49:30;;;;;;;1.27;0.60;;;22.20;99.90;;;;;;4994592;28;20050;-33
2023/07/17 11:51:57;;;;;;;2.88;0.60;;;22.00;99.90;;;;;;4999659;28;20050;-33
2023/07/17 11:54:48;;;;;;;2.72;0.60;;;21.70;99.90;;;;;;5000891;28;20076;-32
2023/07/17 11:57:14;;;;;;;3.17;0.70;;;21.40;99.90;;;;;;5006754;28;20119;-36
2023/07/17 11:59:45;;;;;;;2.92;0.60;;;21.20;99.90;;;;;;4997083;28;20054;-33
2023/07/17 12:02:11;;;;;;;5.15;1.10;;;21.10;99.90;;;;;;4986124;28;20046;-33
2023/07/17 12:04:39;;;;;;;6.45;1.00;;;20.90;99.90;;;;;;4988059;28;20046;-33
2023/07/17 12:07:06;;;;;;;5.10;1.35;;;20.60;99.90;;;;;;4987929;28;20058;-33
2023/07/17 12:09:32;;;;;;;3.90;1.10;;;20.40;99.90;;;;;;4993473;28;20101;-33
2023/07/17 12:11:57;;;;;;;2.45;1.00;;;20.40;99.90;;;;;;4993113;28;20274;-33
2023/07/17 12:14:23;;;;;;;1.42;0.60;;;20.30;99.90;;;;;;4991490;28;20073;-32
2023/07/17 12:16:49;;;;;;;2.60;0.60;;;20.30;99.90;;;;;;4993107;28;20050;-32
2023/07/17 12:19:15;;;;;;;1.88;0.60;;;20.30;99.90;;;;;;4989130;28;20062;-33
2023/07/17 12:21:40;;;;;;;2.75;0.47;;;20.30;99.90;;;;;;4979067;28;20058;-33
2023/07/17 12:24:06;;;;;;;3.20;0.43;;;20.40;99.90;;;;;;4985381;28;20057;-32
2023/07/17 12:26:32;;;;;;;3.03;0.60;;;20.50;99.90;;;;;;4985888;28;20100;-32
2023/07/17 12:28:57;;;;;;;1.77;0.50;;;20.40;99.90;;;;;;4999296;28;20062;-33
2023/07/17 12:31:24;;;;;;;3.42;1.30;;;20.20;99.90;;;;;;4979127;28;20054;-38
2023/07/17 12:33:50;;;;;;;2.92;0.75;;;20.10;99.90;;;;;;4986853;28;20073;-33
2023/07/17 12:36:15;;;;;;;3.35;1.10;;;19.90;99.90;;;;;;4985228;28;20058;-34
2023/07/17 12:38:41;;;;;;;4.78;0.93;;;19.70;99.90;;;;;;4988387;28;20066;-34
2023/07/17 12:41:06;;;;;;;5.13;1.30;;;19.10;99.90;;;;;;4980587;28;20050;-36
2023/07/17 12:43:32;;;;;;;5.95;1.65;;;18.40;99.90;;;;;;4981345;28;20046;-35